createdAt,value
2023-04-26T00:00:09.013Z,97668.94
2023-04-26T00:03:01.025Z,97670.81
2023-04-26T00:05:30.056Z,97664.75
2023-04-26T00:07:58.470Z,97670.47
2023-04-26T00:10:27.217Z,97669.53
2023-04-26T00:12:55.340Z,97674.34
2023-04-26T00:15:23.890Z,97678.44
2023-04-26T00:17:52.102Z,97684.38
2023-04-26T00:20:22.003Z,97683.47
2023-04-26T00:22:50.157Z,97688.56
2023-04-26T00:25:18.703Z,97681.97
2023-04-26T00:27:46.983Z,97679.22
2023-04-26T00:30:16.270Z,97683.00
2023-04-26T00:32:44.453Z,97680.34
2023-04-26T00:35:12.912Z,97683.97
2023-04-26T00:37:42.726Z,97674.31
2023-04-26T00:40:12.510Z,97676.19
2023-04-26T00:42:41.053Z,97675.72
2023-04-26T00:45:10.163Z,97671.63
2023-04-26T00:47:38.497Z,97676.56
2023-04-26T00:50:08.680Z,97677.94
2023-04-26T00:52:36.908Z,97682.31
2023-04-26T00:55:07.906Z,97690.06
2023-04-26T00:57:36.221Z,97686.06
2023-04-26T01:00:05.306Z,97685.22
2023-04-26T01:02:33.710Z,97683.88
2023-04-26T01:05:02.338Z,97682.28
2023-04-26T01:07:30.527Z,97679.69
2023-04-26T01:09:59.702Z,97690.91
2023-04-26T01:12:29.580Z,97688.25
2023-04-26T01:14:58.407Z,97688.41
2023-04-26T01:17:26.666Z,97697.28
2023-04-26T01:19:55.428Z,97695.56
2023-04-26T01:22:23.605Z,97691.38
2023-04-26T01:24:56.489Z,97694.22
2023-04-26T01:27:24.625Z,97700.25
2023-04-26T01:29:53.134Z,97696.91
2023-04-26T01:32:21.378Z,97708.59
2023-04-26T01:34:49.785Z,97708.69
2023-04-26T01:37:17.932Z,97706.41
2023-04-26T01:39:46.625Z,97719.28
2023-04-26T01:42:16.280Z,97715.84
2023-04-26T01:44:44.814Z,97717.13
2023-04-26T01:47:13.022Z,97722.13
2023-04-26T01:49:41.703Z,97722.50
2023-04-26T01:52:09.873Z,97723.94
2023-04-26T01:54:38.548Z,97724.69
2023-04-26T01:57:06.952Z,97718.00
2023-04-26T01:59:36.726Z,97727.84
2023-04-26T02:02:05.484Z,97732.88
2023-04-26T02:04:34.117Z,97727.16
2023-04-26T02:07:02.312Z,97722.84
2023-04-26T02:09:30.880Z,97728.81
2023-04-26T02:11:58.939Z,97732.44
2023-04-26T02:14:27.459Z,97725.66
2023-04-26T02:16:57.221Z,97725.25
2023-04-26T02:19:26.003Z,97728.91
2023-04-26T02:21:56.258Z,97729.09
2023-04-26T02:24:24.872Z,97729.19
2023-04-26T02:26:54.595Z,97725.50
2023-04-26T02:29:40.007Z,97725.28
2023-04-26T02:32:12.892Z,97721.03
2023-04-26T02:34:41.776Z,97727.47
2023-04-26T02:37:10.168Z,97737.16
2023-04-26T02:39:38.655Z,97725.09
2023-04-26T02:42:10.212Z,97725.91
2023-04-26T02:44:39.705Z,97730.81
2023-04-26T02:47:08.242Z,97722.16
2023-04-26T02:49:38.184Z,97727.78
2023-04-26T02:52:06.402Z,97728.03
2023-04-26T02:54:34.894Z,97735.72
2023-04-26T02:57:02.981Z,97738.72
2023-04-26T02:59:31.578Z,97739.47
2023-04-26T03:01:59.837Z,97738.97
2023-04-26T03:04:28.944Z,97744.19
2023-04-26T03:06:58.480Z,97749.34
2023-04-26T03:09:26.977Z,97740.94
2023-04-26T03:11:55.147Z,97749.78
2023-04-26T03:14:23.659Z,97748.16
2023-04-26T03:16:51.835Z,97749.28
2023-04-26T03:19:21.325Z,97760.19
2023-04-26T03:21:49.522Z,97754.25
2023-04-26T03:24:19.358Z,97764.00
2023-04-26T03:26:47.618Z,97761.28
2023-04-26T03:29:16.317Z,97768.19
2023-04-26T03:31:44.703Z,97773.09
2023-04-26T03:34:13.302Z,97768.25
2023-04-26T03:36:41.531Z,97775.28
2023-04-26T03:39:10.372Z,97781.59
2023-04-26T03:41:40.590Z,97778.59
2023-04-26T03:44:09.107Z,97784.34
2023-04-26T03:46:37.384Z,97777.28
2023-04-26T03:49:05.755Z,97780.00
2023-04-26T03:51:34.030Z,97784.56
2023-04-26T03:54:02.560Z,97782.22
2023-04-26T03:56:31.089Z,97786.44
2023-04-26T03:59:01.039Z,97790.97
2023-04-26T04:01:29.211Z,97787.91
2023-04-26T04:03:57.810Z,97794.88
2023-04-26T04:06:26.598Z,97793.31
2023-04-26T04:08:55.504Z,97799.56
2023-04-26T04:11:23.862Z,97795.94
2023-04-26T04:13:52.322Z,97800.72
2023-04-26T04:16:22.026Z,97797.41
2023-04-26T04:18:50.896Z,97804.09
2023-04-26T04:21:19.345Z,97803.50
2023-04-26T04:23:48.232Z,97809.91
2023-04-26T04:26:17.564Z,97817.81
2023-04-26T04:28:47.302Z,97817.47
2023-04-26T04:31:15.967Z,97820.69
2023-04-26T04:33:45.901Z,97829.53
2023-04-26T04:36:16.938Z,97835.41
2023-04-26T04:38:45.317Z,97832.59
2023-04-26T04:41:13.451Z,97824.31
2023-04-26T04:43:41.882Z,97829.66
2023-04-26T04:46:12.733Z,97827.88
2023-04-26T04:48:41.645Z,97818.31
2023-04-26T04:51:12.091Z,97830.50
2023-04-26T04:53:40.752Z,97827.59
2023-04-26T04:56:09.316Z,97826.41
2023-04-26T04:58:38.135Z,97824.59
2023-04-26T05:01:07.188Z,97828.63
2023-04-26T05:03:35.844Z,97823.53
2023-04-26T05:06:04.077Z,97833.84
2023-04-26T05:08:33.869Z,97821.78
2023-04-26T05:11:03.109Z,97837.34
2023-04-26T05:13:31.592Z,97832.66
2023-04-26T05:15:59.812Z,97841.22
2023-04-26T05:18:28.361Z,97841.13
2023-04-26T05:20:56.631Z,97847.56
2023-04-26T05:23:25.091Z,97848.22
2023-04-26T05:25:54.571Z,97844.75
2023-04-26T05:28:23.184Z,97853.44
2023-04-26T05:30:51.417Z,97849.63
2023-04-26T05:33:19.962Z,97850.13
2023-04-26T05:35:48.178Z,97862.72
2023-04-26T05:38:16.749Z,97860.09
2023-04-26T05:40:44.981Z,97854.47
2023-04-26T05:43:14.759Z,97857.97
2023-04-26T05:45:51.922Z,97858.75
2023-04-26T05:48:21.885Z,97856.56
2023-04-26T05:50:50.187Z,97859.66
2023-04-26T05:53:19.254Z,97864.00
2023-04-26T05:55:47.522Z,97863.28
2023-04-26T05:58:17.459Z,97855.50
2023-04-26T06:00:45.614Z,97851.66
2023-04-26T06:03:14.350Z,97856.44
2023-04-26T06:05:42.799Z,97860.44
2023-04-26T06:08:11.352Z,97865.28
2023-04-26T06:10:39.469Z,97873.28
2023-04-26T06:13:07.998Z,97859.41
2023-04-26T06:15:37.633Z,97868.66
2023-04-26T06:18:06.530Z,97857.44
2023-04-26T06:20:34.905Z,97866.28
2023-04-26T06:23:03.365Z,97864.66
2023-04-26T06:25:32.165Z,97870.63
2023-04-26T06:28:00.837Z,97868.19
2023-04-26T06:30:29.121Z,97866.66
2023-04-26T06:33:00.330Z,97870.97
2023-04-26T06:35:28.749Z,97871.28
2023-04-26T06:37:57.294Z,97862.47
2023-04-26T06:40:25.512Z,97874.78
2023-04-26T06:42:54.512Z,97870.28
2023-04-26T06:45:22.842Z,97867.50
2023-04-26T06:47:52.774Z,97875.03
2023-04-26T06:50:22.736Z,97869.25
2023-04-26T06:52:51.598Z,97866.91
2023-04-26T06:55:20.131Z,97862.00
2023-04-26T06:57:48.799Z,97871.78
2023-04-26T07:00:18.025Z,97861.34
2023-04-26T07:02:47.137Z,97859.22
2023-04-26T07:05:16.280Z,97875.56
2023-04-26T07:07:46.240Z,97868.06
2023-04-26T07:10:14.853Z,97878.22
2023-04-26T07:12:43.409Z,97874.13
2023-04-26T07:15:12.553Z,97864.19
2023-04-26T07:17:41.245Z,97868.63
2023-04-26T07:20:10.577Z,97878.06
2023-04-26T07:22:39.615Z,97871.28
2023-04-26T07:25:09.807Z,97879.09
2023-04-26T07:27:38.620Z,97870.72
2023-04-26T07:30:08.198Z,97886.22
2023-04-26T07:32:37.030Z,97878.16
2023-04-26T07:35:08.511Z,97884.97
2023-04-26T07:37:37.079Z,97890.13
2023-04-26T07:40:08.381Z,97894.97
2023-04-26T07:42:38.402Z,97902.97
2023-04-26T07:45:08.593Z,97893.97
2023-04-26T07:47:37.340Z,97894.13
2023-04-26T07:50:06.591Z,97901.84
2023-04-26T07:52:36.135Z,97894.69
2023-04-26T07:55:04.638Z,97894.69
2023-04-26T07:57:33.209Z,97899.16
2023-04-26T08:00:03.020Z,97894.31
2023-04-26T08:02:43.301Z,97904.66
2023-04-26T08:05:13.376Z,97913.19
2023-04-26T08:07:42.418Z,97914.41
2023-04-26T08:10:11.824Z,97909.84
2023-04-26T08:12:40.827Z,97916.13
2023-04-26T08:15:12.141Z,97915.47
2023-04-26T08:17:41.697Z,97903.56
2023-04-26T08:20:10.928Z,97907.91
2023-04-26T08:22:39.480Z,97909.91
2023-04-26T08:25:08.297Z,97918.13
2023-04-26T08:27:37.540Z,97914.00
2023-04-26T08:30:06.936Z,97909.91
2023-04-26T08:32:37.104Z,97897.03
2023-04-26T08:35:06.046Z,97909.25
2023-04-26T08:37:35.874Z,97916.91
2023-04-26T08:40:04.868Z,97906.31
2023-04-26T08:42:34.712Z,97907.13
2023-04-26T08:45:05.058Z,97908.09
2023-04-26T08:47:42.550Z,97899.56
2023-04-26T08:50:14.672Z,97898.16
2023-04-26T08:52:46.662Z,97908.38
2023-04-26T08:55:16.548Z,97908.75
2023-04-26T08:57:45.569Z,97925.88
2023-04-26T09:00:16.054Z,97911.00
2023-04-26T09:02:48.647Z,97904.19
2023-04-26T09:05:17.229Z,97908.31
2023-04-26T09:07:47.018Z,97917.91
2023-04-26T09:10:21.470Z,97916.19
2023-04-26T09:12:53.723Z,97901.38
2023-04-26T09:15:22.919Z,97911.97
2023-04-26T09:17:53.321Z,97918.53
2023-04-26T09:20:24.169Z,97915.25
2023-04-26T09:22:54.296Z,97922.88
2023-04-26T09:25:29.444Z,97898.31
2023-04-26T09:27:58.906Z,97913.22
2023-04-26T09:30:27.949Z,97908.44
2023-04-26T09:32:59.813Z,97914.25
2023-04-26T09:35:30.904Z,97912.16
2023-04-26T09:38:07.891Z,97916.53
2023-04-26T09:40:41.135Z,97917.75
2023-04-26T09:43:11.742Z,97927.56
2023-04-26T09:45:49.199Z,97910.72
2023-04-26T09:48:26.188Z,97920.53
2023-04-26T09:50:55.714Z,97913.53
2023-04-26T09:53:28.962Z,97918.06
2023-04-26T09:55:58.274Z,97905.34
2023-04-26T09:58:27.155Z,97897.84
2023-04-26T10:00:56.052Z,97901.66
2023-04-26T10:03:27.356Z,97898.78
2023-04-26T10:05:56.057Z,97908.81
2023-04-26T10:08:24.876Z,97912.34
2023-04-26T10:10:53.447Z,97911.97
2023-04-26T10:13:22.723Z,97905.09
2023-04-26T10:15:51.458Z,97904.66
2023-04-26T10:18:20.569Z,97898.50
2023-04-26T10:20:53.216Z,97894.06
2023-04-26T10:23:25.871Z,97903.38
2023-04-26T10:25:54.760Z,97910.03
2023-04-26T10:29:02.154Z,97903.03
2023-04-26T10:32:05.348Z,97905.78
2023-04-26T10:34:36.401Z,97903.97
2023-04-26T10:37:12.798Z,97901.91
2023-04-26T10:39:42.228Z,97906.75
2023-04-26T10:42:30.466Z,97910.91
2023-04-26T10:44:59.906Z,97918.47
2023-04-26T10:47:30.844Z,97916.97
2023-04-26T10:50:07.457Z,97920.00
2023-04-26T10:52:38.382Z,97924.34
2023-04-26T10:55:08.052Z,97926.88
2023-04-26T10:57:52.769Z,97929.13
2023-04-26T11:00:32.783Z,97929.31
2023-04-26T11:03:06.662Z,97937.78
2023-04-26T11:05:37.733Z,97941.34
2023-04-26T11:08:09.619Z,97944.53
2023-04-26T11:10:41.711Z,97934.38
2023-04-26T11:13:10.242Z,97925.88
2023-04-26T11:15:38.922Z,97924.66
2023-04-26T11:18:07.725Z,97924.44
2023-04-26T11:20:36.595Z,97918.66
2023-04-26T11:23:05.118Z,97914.41
2023-04-26T11:25:35.232Z,97913.63
2023-04-26T11:28:04.234Z,97923.75
2023-04-26T11:30:33.520Z,97923.56
2023-04-26T11:33:02.060Z,97921.50
2023-04-26T11:35:31.049Z,97924.97
2023-04-26T11:38:00.380Z,97918.53
2023-04-26T11:40:30.298Z,97920.03
2023-04-26T11:43:03.085Z,97912.41
2023-04-26T11:45:33.846Z,97890.47
2023-04-26T11:48:03.814Z,97926.22
2023-04-26T11:50:33.587Z,97925.63
2023-04-26T11:53:03.419Z,97936.97
2023-04-26T11:55:34.305Z,97954.94
2023-04-26T11:58:11.862Z,97941.00
2023-04-26T12:00:59.009Z,97944.53
2023-04-26T12:03:32.562Z,97948.81
2023-04-26T12:06:01.521Z,97951.38
2023-04-26T12:08:30.030Z,97941.75
2023-04-26T12:11:01.265Z,97947.19
2023-04-26T12:13:33.051Z,97944.41
2023-04-26T12:16:02.639Z,97927.66
2023-04-26T12:18:33.846Z,97931.84
2023-04-26T12:21:02.613Z,97940.50
2023-04-26T12:23:39.430Z,97939.38
2023-04-26T12:26:11.186Z,97941.34
2023-04-26T12:28:41.432Z,97930.91
2023-04-26T12:31:10.314Z,97948.59
2023-04-26T12:33:38.772Z,97937.91
2023-04-26T12:36:11.417Z,97949.94
2023-04-26T12:38:40.494Z,97958.72
2023-04-26T12:41:09.395Z,97956.16
2023-04-26T12:43:37.809Z,97961.63
2023-04-26T12:46:07.733Z,97974.94
2023-04-26T12:48:36.334Z,97974.56
2023-04-26T12:51:08.060Z,97965.00
2023-04-26T12:53:36.908Z,97978.25
2023-04-26T12:56:06.098Z,97963.38
2023-04-26T12:58:34.617Z,97968.88
2023-04-26T13:01:03.296Z,97964.88
2023-04-26T13:03:33.255Z,97961.69
2023-04-26T13:06:02.290Z,97958.69
2023-04-26T13:08:32.834Z,97942.91
2023-04-26T13:11:01.445Z,97948.97
2023-04-26T13:13:42.270Z,97951.06
2023-04-26T13:16:13.296Z,97952.47
2023-04-26T13:18:43.336Z,97967.06
2023-04-26T13:21:11.898Z,97967.09
2023-04-26T13:23:40.370Z,97979.38
2023-04-26T13:26:09.075Z,97990.63
2023-04-26T13:28:37.670Z,97978.09
2023-04-26T13:31:06.584Z,97986.22
2023-04-26T13:33:34.946Z,97988.47
2023-04-26T13:36:05.245Z,97988.72
2023-04-26T13:38:33.589Z,97983.53
2023-04-26T13:41:02.555Z,97968.69
2023-04-26T13:43:30.880Z,97966.75
2023-04-26T13:46:01.554Z,97974.88
2023-04-26T13:48:29.845Z,97961.91
2023-04-26T13:50:59.033Z,97974.09
2023-04-26T13:53:28.787Z,97977.31
2023-04-26T13:55:57.770Z,97988.28
2023-04-26T13:58:26.336Z,97988.94
2023-04-26T14:00:54.913Z,97987.81
2023-04-26T14:03:23.439Z,98009.88
2023-04-26T14:05:52.072Z,98003.19
2023-04-26T14:08:20.502Z,98015.09
2023-04-26T14:10:50.380Z,98015.59
2023-04-26T14:13:18.686Z,98008.72
2023-04-26T14:15:47.538Z,98015.31
2023-04-26T14:18:16.070Z,98015.28
2023-04-26T14:20:45.059Z,98005.88
2023-04-26T14:23:13.422Z,98011.41
2023-04-26T14:25:42.537Z,98007.06
2023-04-26T14:28:12.679Z,98005.53
2023-04-26T14:30:41.271Z,98001.00
2023-04-26T14:33:09.568Z,98009.78
2023-04-26T14:35:38.236Z,98014.09
2023-04-26T14:38:06.619Z,97998.50
2023-04-26T14:40:35.380Z,98013.91
2023-04-26T14:43:03.783Z,98018.78
2023-04-26T14:45:43.973Z,98011.44
2023-04-26T14:48:13.113Z,98019.59
2023-04-26T14:50:41.889Z,98016.72
2023-04-26T14:53:11.223Z,98022.72
2023-04-26T14:55:39.752Z,98021.13
2023-04-26T14:58:08.677Z,98015.59
2023-04-26T15:00:39.157Z,98019.81
2023-04-26T15:03:07.849Z,98022.22
2023-04-26T15:05:36.546Z,98028.38
2023-04-26T15:08:05.281Z,98032.56
2023-04-26T15:10:34.055Z,98032.72
2023-04-26T15:13:02.505Z,98027.25
2023-04-26T15:15:31.320Z,98032.06
2023-04-26T15:18:01.970Z,98024.34
2023-04-26T15:20:30.879Z,98026.94
2023-04-26T15:22:59.132Z,98029.81
2023-04-26T15:25:27.768Z,98037.75
2023-04-26T15:27:57.523Z,98030.59
2023-04-26T15:30:25.995Z,98038.41
2023-04-26T15:32:54.307Z,98039.53
2023-04-26T15:35:25.219Z,98034.06
2023-04-26T15:37:54.180Z,98042.91
2023-04-26T15:40:22.995Z,98042.06
2023-04-26T15:42:52.036Z,98039.94
2023-04-26T15:45:20.657Z,98038.47
2023-04-26T15:47:49.127Z,98037.50
2023-04-26T15:50:17.871Z,98033.16
2023-04-26T15:52:47.668Z,98038.47
2023-04-26T15:55:16.576Z,98018.06
2023-04-26T15:57:48.386Z,98028.97
2023-04-26T16:00:19.825Z,98036.34
2023-04-26T16:02:48.346Z,98027.28
2023-04-26T16:05:17.527Z,98028.63
2023-04-26T16:07:47.382Z,98037.66
2023-04-26T16:10:17.315Z,98036.84
2023-04-26T16:12:45.610Z,98048.50
2023-04-26T16:15:14.569Z,98051.03
2023-04-26T16:17:42.916Z,98046.91
2023-04-26T16:20:12.291Z,98044.78
2023-04-26T16:22:40.816Z,98054.19
2023-04-26T16:25:11.202Z,98060.84
2023-04-26T16:27:39.440Z,98064.56
2023-04-26T16:30:09.897Z,98071.75
2023-04-26T16:32:38.311Z,98073.75
2023-04-26T16:35:09.076Z,98069.59
2023-04-26T16:37:39.380Z,98068.63
2023-04-26T16:40:11.710Z,98083.03
2023-04-26T16:42:43.364Z,98083.34
2023-04-26T16:45:16.045Z,98085.38
2023-04-26T16:47:45.063Z,98088.06
2023-04-26T16:50:13.865Z,98084.94
2023-04-26T16:52:42.709Z,98091.94
2023-04-26T16:55:13.042Z,98101.03
2023-04-26T16:57:42.130Z,98105.91
2023-04-26T17:00:12.252Z,98102.00
2023-04-26T17:02:42.111Z,98105.13
2023-04-26T17:05:11.439Z,98112.94
2023-04-26T17:07:39.894Z,98110.81
2023-04-26T17:10:09.488Z,98113.25
2023-04-26T17:12:39.346Z,98093.41
2023-04-26T17:15:08.695Z,98117.53
2023-04-26T17:17:37.539Z,98108.56
2023-04-26T17:20:10.122Z,98114.06
2023-04-26T17:22:39.600Z,98104.75
2023-04-26T17:25:09.140Z,98104.59
2023-04-26T17:27:38.876Z,98109.13
2023-04-26T17:30:08.790Z,98113.81
2023-04-26T17:32:37.323Z,98103.56
2023-04-26T17:35:07.691Z,98121.06
2023-04-26T17:37:36.086Z,98112.44
2023-04-26T17:40:07.782Z,98127.31
2023-04-26T17:42:36.111Z,98123.97
2023-04-26T17:45:07.553Z,98131.56
2023-04-26T17:47:35.823Z,98132.00
2023-04-26T17:50:04.529Z,98129.41
2023-04-26T17:52:32.832Z,98139.91
2023-04-26T17:55:01.684Z,98139.56
2023-04-26T17:57:30.192Z,98140.97
2023-04-26T17:59:58.849Z,98147.25
2023-04-26T18:02:28.584Z,98153.03
2023-04-26T18:04:57.538Z,98156.78
2023-04-26T18:07:26.216Z,98152.69
2023-04-26T18:09:54.871Z,98153.09
2023-04-26T18:12:23.230Z,98154.25
2023-04-26T18:14:52.382Z,98159.91
2023-04-26T18:17:20.937Z,98161.31
2023-04-26T18:19:50.979Z,98160.03
2023-04-26T18:22:19.431Z,98164.00
2023-04-26T18:24:48.234Z,98172.50
2023-04-26T18:27:16.725Z,98175.63
2023-04-26T18:29:45.288Z,98177.63
2023-04-26T18:32:13.751Z,98183.78
2023-04-26T18:34:42.408Z,98182.31
2023-04-26T18:37:12.045Z,98179.84
2023-04-26T18:39:40.628Z,98180.97
2023-04-26T18:42:08.961Z,98184.31
2023-04-26T18:44:37.717Z,98184.38
2023-04-26T18:47:06.315Z,98193.72
2023-04-26T18:49:35.077Z,98189.34
2023-04-26T18:52:03.935Z,98188.84
2023-04-26T18:54:34.902Z,98195.22
2023-04-26T18:57:03.645Z,98198.47
2023-04-26T18:59:32.634Z,98205.41
2023-04-26T19:02:01.746Z,98206.59
2023-04-26T19:04:30.766Z,98201.78
2023-04-26T19:07:00.865Z,98210.50
2023-04-26T19:09:39.681Z,98209.16
2023-04-26T19:12:16.833Z,98213.84
2023-04-26T19:14:45.588Z,98211.31
2023-04-26T19:17:13.906Z,98212.78
2023-04-26T19:19:42.533Z,98214.19
2023-04-26T19:22:10.983Z,98218.34
2023-04-26T19:24:39.563Z,98215.75
2023-04-26T19:27:07.842Z,98220.69
2023-04-26T19:29:37.911Z,98218.97
2023-04-26T19:32:07.201Z,98217.59
2023-04-26T19:34:38.931Z,98220.34
2023-04-26T19:37:07.304Z,98222.25
2023-04-26T19:39:36.020Z,98222.25
2023-04-26T19:42:04.885Z,98233.38
2023-04-26T19:44:33.576Z,98229.59
2023-04-26T19:47:03.505Z,98227.63
2023-04-26T19:49:32.363Z,98230.19
2023-04-26T19:52:02.028Z,98224.34
2023-04-26T19:54:30.678Z,98230.19
2023-04-26T19:56:59.113Z,98229.91
2023-04-26T19:59:27.801Z,98229.81
2023-04-26T20:01:56.199Z,98225.66
2023-04-26T20:04:26.454Z,98226.91
2023-04-26T20:06:54.978Z,98228.41
2023-04-26T20:09:23.510Z,98231.22
2023-04-26T20:11:52.025Z,98236.19
2023-04-26T20:14:20.693Z,98235.91
2023-04-26T20:16:49.200Z,98235.38
2023-04-26T20:19:17.830Z,98241.63
2023-04-26T20:21:47.626Z,98239.03
2023-04-26T20:24:16.590Z,98237.16
2023-04-26T20:26:45.031Z,98234.34
2023-04-26T20:29:13.672Z,98246.63
2023-04-26T20:31:42.199Z,98239.97
2023-04-26T20:34:10.865Z,98241.56
2023-04-26T20:36:39.365Z,98242.31
2023-04-26T20:39:10.798Z,98241.75
2023-04-26T20:41:39.273Z,98234.53
2023-04-26T20:44:07.956Z,98243.06
2023-04-26T20:46:36.374Z,98241.94
2023-04-26T20:49:06.881Z,98240.31
2023-04-26T20:51:35.313Z,98237.41
2023-04-26T20:54:03.950Z,98249.66
2023-04-26T20:56:33.630Z,98245.56
2023-04-26T20:59:02.195Z,98252.88
2023-04-26T21:01:30.734Z,98247.78
2023-04-26T21:03:59.351Z,98253.69
2023-04-26T21:06:28.713Z,98253.97
2023-04-26T21:08:57.488Z,98260.16
2023-04-26T21:11:26.005Z,98251.75
2023-04-26T21:13:56.149Z,98256.72
2023-04-26T21:16:24.550Z,98258.09
2023-04-26T21:18:53.045Z,98259.19
2023-04-26T21:21:21.413Z,98259.53
2023-04-26T21:23:50.024Z,98269.19
2023-04-26T21:26:18.585Z,98277.97
2023-04-26T21:28:47.145Z,98269.00
2023-04-26T21:31:16.969Z,98269.13
2023-04-26T21:33:45.641Z,98273.69
2023-04-26T21:36:13.832Z,98279.69
2023-04-26T21:38:42.452Z,98278.63
2023-04-26T21:41:10.733Z,98286.84
2023-04-26T21:43:39.338Z,98288.25
2023-04-26T21:46:08.196Z,98286.06
2023-04-26T21:48:38.934Z,98287.56
2023-04-26T21:51:07.937Z,98284.75
2023-04-26T21:53:36.518Z,98297.13
2023-04-26T21:56:06.319Z,98298.50
2023-04-26T21:58:34.947Z,98295.50
2023-04-26T22:01:09.606Z,98290.88
2023-04-26T22:03:39.975Z,98298.38
2023-04-26T22:06:09.661Z,98298.66
2023-04-26T22:08:38.735Z,98303.66
2023-04-26T22:11:07.025Z,98311.84
2023-04-26T22:13:35.898Z,98310.47
2023-04-26T22:16:04.538Z,98311.56
2023-04-26T22:18:33.360Z,98306.63
2023-04-26T22:21:03.020Z,98319.06
2023-04-26T22:23:32.234Z,98316.44
2023-04-26T22:26:00.784Z,98321.34
2023-04-26T22:28:29.270Z,98314.25
2023-04-26T22:30:57.751Z,98326.72
2023-04-26T22:33:26.336Z,98327.03
2023-04-26T22:35:58.030Z,98322.13
2023-04-26T22:38:28.051Z,98321.66
2023-04-26T22:40:56.356Z,98322.38
2023-04-26T22:43:24.937Z,98322.09
2023-04-26T22:45:53.246Z,98324.56
2023-04-26T22:48:21.851Z,98323.69
2023-04-26T22:50:50.747Z,98320.38
2023-04-26T22:53:19.276Z,98328.84
2023-04-26T22:55:51.857Z,98321.59
2023-04-26T22:58:20.328Z,98330.50
2023-04-26T23:00:48.485Z,98333.75
2023-04-26T23:03:17.171Z,98333.75
2023-04-26T23:05:45.705Z,98332.94
2023-04-26T23:08:14.151Z,98330.22
2023-04-26T23:10:42.336Z,98342.53
2023-04-26T23:13:12.229Z,98335.19
2023-04-26T23:15:40.477Z,98337.56
2023-04-26T23:18:09.646Z,98338.91
2023-04-26T23:20:38.092Z,98335.91
2023-04-26T23:23:06.745Z,98343.03
2023-04-26T23:25:35.090Z,98342.50
2023-04-26T23:28:03.655Z,98346.59
2023-04-26T23:30:33.260Z,98345.81
2023-04-26T23:33:01.905Z,98347.72
2023-04-26T23:35:30.238Z,98337.00
2023-04-26T23:37:58.774Z,98343.84
2023-04-26T23:40:27.155Z,98341.66
2023-04-26T23:42:55.867Z,98345.53
2023-04-26T23:45:24.159Z,98346.63
2023-04-26T23:47:54.405Z,98349.25
2023-04-26T23:50:23.004Z,98346.97
2023-04-26T23:52:51.542Z,98346.97
2023-04-26T23:55:19.972Z,98348.94
2023-04-26T23:57:48.585Z,98349.22
